.
WxDataArchive / Data Records for 2011-12-02
2011-12-01 December 2011 2011-12-03

Data Records for Friday, 02 December 2011

Time	Temp	Chill	HIndex	Humid	Dewpt	 Wind 	HiWind	WindDir	Rain 	Barom 
-----	----	-----	------	-----	-----	------	------	-------	-----	----- 
00:00	28.2	28.2	28.2	92	26.2	0	0	---	0.00	30.286 
00:05	28.2	28.2	28.2	92	26.2	0	0	---	0.00	30.286 
00:10	28.2	28.2	28.2	92	26.2	0	0	---	0.00	30.286 
00:15	28.2	28.2	28.2	92	26.2	0	0	---	0.00	30.275 
00:20	28.1	28.1	28.1	92	26.1	0	0	---	0.00	30.275 
00:25	28.1	28.1	28.1	92	26.1	0	0	---	0.00	30.275 
00:30	28.1	28.1	28.1	92	26.1	0	0	---	0.00	30.273 
00:35	28.1	28.1	28.1	92	26.1	0	0	---	0.00	30.273 
00:40	28.1	28.1	28.1	92	26.1	0	0	---	0.00	30.273 
00:45	28.1	28.1	28.1	92	26.1	0	0	---	0.00	30.268 
00:50	28.1	28.1	28.1	92	26.1	0	0	---	0.00	30.268 
00:55	28.2	28.2	28.2	92	26.2	0	0	---	0.00	30.268 
01:00	28.2	28.2	28.2	92	26.2	0	0	---	0.00	30.272 
01:05	28.2	28.2	28.2	92	26.2	0	0	---	0.00	30.272 
01:10	28.1	28.1	28.1	92	26.1	0	0	---	0.00	30.272 
01:15	27.9	27.9	27.9	92	25.9	0	0	---	0.00	30.274 
01:20	27.8	27.8	27.8	92	25.8	0	0	---	0.00	30.274 
01:25	27.6	27.6	27.6	92	25.6	0	0	---	0.00	30.274 
01:30	27.6	27.6	27.6	92	25.6	0	0	---	0.00	30.276 
01:35	27.5	27.5	27.5	92	25.5	0	0	---	0.00	30.276 
01:40	27.5	27.5	27.5	92	25.5	0	0	---	0.00	30.276 
01:45	27.5	27.5	27.5	92	25.5	0	0	---	0.00	30.273 
01:50	27.5	27.5	27.5	92	25.5	0	0	---	0.00	30.273 
01:55	27.5	27.5	27.5	92	25.5	0	0	---	0.00	30.273 
02:00	27.6	27.6	27.6	92	25.6	0	0	---	0.00	30.273 
02:05	27.8	27.8	27.8	92	25.8	0	0	---	0.00	30.273 
02:10	28.1	28.1	28.1	92	26.1	0	0	---	0.00	30.273 
02:15	28.4	28.4	28.4	92	26.4	0	0	---	0.00	30.274 
02:20	28.4	28.4	28.4	92	26.4	0	0	---	0.00	30.274 
02:25	28.5	28.5	28.5	92	26.5	0	0	---	0.00	30.274 
02:30	28.5	28.5	28.5	92	26.5	0	0	---	0.00	30.271 
02:35	28.7	28.7	28.7	92	26.7	0	0	---	0.00	30.271 
02:40	28.5	28.5	28.5	92	26.5	0	0	---	0.00	30.271 
02:45	28.5	28.5	28.5	92	26.5	0	0	---	0.00	30.275 
02:50	28.4	28.4	28.4	92	26.4	0	0	---	0.00	30.275 
02:55	28.2	28.2	28.2	92	26.2	0	0	---	0.00	30.275 
03:00	28.1	28.1	28.1	92	26.1	0	0	---	0.00	30.275 
03:05	27.9	27.9	27.9	92	25.9	0	0	---	0.00	30.275 
03:10	27.8	27.8	27.8	92	25.8	0	0	---	0.00	30.275 
03:15	27.8	27.8	27.8	92	25.8	0	0	---	0.00	30.284 
03:20	27.9	27.9	27.9	93	26.1	0	0	---	0.00	30.284 
03:25	28.1	28.1	28.1	92	26.1	0	0	---	0.00	30.284 
03:30	27.9	27.9	27.9	92	25.9	0	0	---	0.00	30.280 
03:35	27.8	27.8	27.8	92	25.8	0	0	---	0.00	30.280 
03:40	27.9	27.9	27.9	93	26.1	0	0	---	0.00	30.280 
03:45	27.9	27.9	27.9	93	26.1	0	0	---	0.00	30.278 
03:50	28.2	28.2	28.2	93	26.4	0	0	---	0.00	30.278 
03:55	28.5	28.5	28.5	93	26.7	0	0	---	0.00	30.278 
04:00	28.8	28.8	28.8	93	27.0	0	0	---	0.00	30.286 
04:05	29.1	29.1	29.1	93	27.3	0	1	248	0.00	30.286 
04:10	29.4	29.4	29.4	93	27.6	0	2	248	0.00	30.286 
04:15	29.8	29.8	29.8	93	28.0	0	2	248	0.00	30.289 
04:20	30.1	30.1	30.1	93	28.3	0	2	248	0.00	30.289 
04:25	30.4	30.4	30.4	93	28.6	0	2	248	0.00	30.289 
04:30	30.7	30.7	30.7	93	28.9	0	2	248	0.00	30.287 
04:35	30.9	30.9	30.9	93	29.1	0	1	248	0.00	30.287 
04:40	31.0	31.0	31.0	93	29.2	0	2	248	0.00	30.287 
04:45	31.2	31.2	31.2	92	29.2	0	1	248	0.00	30.288 
04:50	31.2	31.2	31.2	92	29.2	0	1	248	0.00	30.288 
04:55	31.3	31.3	31.3	92	29.3	0	1	248	0.00	30.288 
05:00	31.3	31.3	31.3	92	29.3	0	1	248	0.00	30.294 
05:05	31.5	31.5	31.5	92	29.4	0	1	248	0.00	30.294 
05:10	31.5	31.5	31.5	92	29.4	0	1	248	0.00	30.294 
05:15	31.6	31.6	31.6	91	29.3	0	1	248	0.00	30.300 
05:20	31.6	31.6	31.6	91	29.3	0	2	248	0.00	30.300 
05:25	31.8	31.8	31.8	91	29.5	0	2	248	0.00	30.300 
05:30	31.8	31.8	31.8	91	29.5	0	2	248	0.00	30.316 
05:35	31.9	31.9	31.9	90	29.3	0	2	248	0.00	30.316 
05:40	32.1	32.1	32.1	90	29.5	0	1	248	0.00	30.316 
05:45	32.1	32.1	32.1	90	29.5	0	1	248	0.00	30.321 
05:50	32.2	32.2	32.2	90	29.6	0	2	248	0.00	30.321 
05:55	32.4	32.4	32.4	90	29.8	0	0	---	0.00	30.321 
06:00	32.4	32.4	32.4	89	29.5	0	1	248	0.00	30.322 
06:05	32.5	32.5	32.5	89	29.6	0	1	248	0.00	30.322 
06:10	32.5	32.5	32.5	89	29.6	0	0	---	0.00	30.322 
06:15	32.7	32.7	32.7	89	29.8	0	0	---	0.00	30.324 
06:20	32.7	32.7	32.7	89	29.8	0	0	---	0.00	30.324 
06:25	32.7	32.7	32.7	89	29.8	0	0	---	0.00	30.324 
06:30	32.7	32.7	32.7	89	29.8	0	0	---	0.00	30.333 
06:35	32.8	32.8	32.8	89	29.9	0	0	---	0.00	30.333 
06:40	32.8	32.8	32.8	89	29.9	0	0	---	0.00	30.333 
06:45	32.8	32.8	32.8	89	29.9	0	0	---	0.00	30.341 
06:50	32.8	32.8	32.8	89	29.9	0	0	---	0.00	30.341 
06:55	32.9	32.9	32.9	89	30.0	0	0	---	0.00	30.341 
07:00	32.9	32.9	32.9	89	30.0	0	0	---	0.00	30.354 
07:05	32.9	32.9	32.9	89	30.0	0	0	---	0.00	30.354 
07:10	32.9	32.9	32.9	89	30.0	0	0	---	0.00	30.354 
07:15	32.9	32.9	32.9	89	30.0	0	0	---	0.00	30.355 
07:20	32.9	32.9	32.9	89	30.0	0	0	---	0.00	30.355 
07:25	32.8	32.8	32.8	89	29.9	0	0	---	0.00	30.355 
07:30	32.7	32.7	32.7	88	29.5	0	0	---	0.00	30.357 
07:35	32.4	32.4	32.4	88	29.3	0	0	---	0.00	30.357 
07:40	32.1	32.1	32.1	88	29.0	0	0	---	0.00	30.357 
07:45	31.8	31.8	31.8	88	28.7	0	0	---	0.00	30.371 
07:50	31.6	31.6	31.6	88	28.5	0	0	---	0.00	30.371 
07:55	31.6	31.6	31.6	89	28.7	0	0	---	0.00	30.371 
08:00	31.5	31.5	31.5	89	28.6	0	0	---	0.00	30.373 
08:05	31.6	31.6	31.6	89	28.7	0	0	---	0.00	30.373 
08:10	31.9	31.9	31.9	90	29.3	0	0	---	0.00	30.373 
08:15	32.1	32.1	32.1	90	29.5	0	0	---	0.00	30.381 
08:20	32.4	32.4	32.4	90	29.8	0	0	---	0.00	30.381 
08:25	32.5	32.5	32.5	90	29.9	0	0	---	0.00	30.381 
08:30	32.7	32.7	32.7	91	30.4	0	0	---	0.00	30.390 
08:35	32.8	32.8	32.8	91	30.5	0	0	---	0.00	30.390 
08:40	32.9	32.9	32.9	91	30.6	0	0	---	0.00	30.390 
08:45	33.2	33.2	33.2	91	30.9	0	0	---	0.00	30.395 
08:50	33.4	33.4	33.4	91	31.1	0	0	---	0.00	30.395 
08:55	33.7	33.7	33.7	91	31.4	0	0	---	0.00	30.395 
09:00	34.0	34.0	34.0	90	31.4	0	0	---	0.00	30.403 
09:05	34.1	34.1	34.1	90	31.5	0	0	---	0.00	30.403 
09:10	34.3	34.3	34.3	90	31.7	0	0	---	0.00	30.403 
09:15	34.4	34.4	34.4	90	31.8	0	0	---	0.00	30.418 
09:20	34.6	34.6	34.6	90	32.0	0	1	248	0.00	30.418 
09:25	34.7	34.7	34.7	89	31.8	0	1	248	0.00	30.418 
09:30	34.9	34.9	34.9	89	32.0	0	0	---	0.00	30.425 
09:35	35.0	35.0	35.0	89	32.1	0	1	248	0.00	30.425 
09:40	35.0	35.0	35.0	89	32.1	0	4	248	0.00	30.425 
09:45	35.2	35.2	35.2	89	32.3	0	2	270	0.00	30.433 
09:50	35.3	35.3	35.3	88	32.1	0	1	270	0.00	30.433 
09:55	35.5	35.5	35.5	88	32.3	0	2	270	0.00	30.433 
10:00	35.6	35.6	35.6	88	32.4	0	2	270	0.00	30.433 
10:05	35.8	35.8	35.8	88	32.6	0	2	270	0.00	30.433 
10:10	35.9	35.9	35.9	88	32.7	1	4	270	0.00	30.433 
10:15	36.0	36.0	36.0	88	32.8	1	4	270	0.00	30.436 
10:20	36.2	36.2	36.2	88	33.0	0	2	45	0.01	30.436 
10:25	36.2	36.2	36.2	87	32.7	1	3	338	0.00	30.436 
10:30	36.3	36.3	36.3	87	32.8	0	2	338	0.00	30.443 
10:35	36.3	36.3	36.3	87	32.8	1	3	338	0.00	30.443 
10:40	36.3	36.3	36.3	87	32.8	0	2	0	0.00	30.443 
10:45	36.3	36.3	36.3	87	32.8	0	2	0	0.01	30.453 
10:50	36.3	36.3	36.3	87	32.8	0	2	0	0.00	30.453 
10:55	36.2	36.2	36.2	87	32.7	0	3	0	0.00	30.453 
11:00	36.0	36.0	36.0	87	32.5	0	2	0	0.00	30.454 
11:05	36.0	36.0	36.0	87	32.5	0	2	0	0.00	30.454 
11:10	36.2	36.2	36.2	87	32.7	0	2	0	0.00	30.454 
11:15	36.0	36.0	36.0	86	32.2	1	2	0	0.01	30.461 
11:20	35.9	35.9	35.9	85	31.8	0	2	0	0.00	30.461 
11:25	35.9	35.9	35.9	85	31.8	0	2	0	0.00	30.461 
11:30	35.9	35.9	35.9	85	31.8	0	2	0	0.00	30.463 
11:35	35.9	35.9	35.9	84	31.5	0	3	338	0.00	30.463 
11:40	35.9	35.9	35.9	84	31.5	0	2	22	0.01	30.463 
11:45	35.9	35.9	35.9	84	31.5	0	2	292	0.00	30.465 
11:50	35.9	35.9	35.9	84	31.5	0	2	292	0.00	30.465 
11:55	35.9	35.9	35.9	83	31.2	0	2	292	0.00	30.465 
12:00	35.9	35.9	35.9	83	31.2	0	3	45	0.00	30.468 
12:05	35.9	35.9	35.9	82	31.0	0	2	135	0.00	30.468 
12:10	35.9	35.9	35.9	81	30.6	0	1	135	0.00	30.468 
12:15	36.2	36.2	36.2	81	30.9	1	5	112	0.00	30.468 
12:20	36.3	36.3	36.3	80	30.7	1	4	112	0.00	30.468 
12:25	36.8	36.8	36.8	80	31.2	1	3	112	0.01	30.468 
12:30	37.0	37.0	37.0	78	30.8	0	2	112	0.00	30.471 
12:35	37.2	37.2	37.2	78	31.0	0	2	112	0.00	30.471 
12:40	37.3	37.3	37.3	78	31.1	0	4	112	0.01	30.471 
12:45	37.5	37.5	37.5	78	31.3	0	1	112	0.00	30.470 
12:50	37.5	37.5	37.5	79	31.6	0	1	112	0.00	30.470 
12:55	37.5	37.5	37.5	77	31.0	1	4	112	0.00	30.470 
13:00	37.3	37.3	37.3	77	30.8	0	3	112	0.00	30.474 
13:05	37.3	37.3	37.3	77	30.8	0	2	45	0.00	30.474 
13:10	37.2	37.2	37.2	76	30.3	0	1	45	0.00	30.474 
13:15	37.2	37.2	37.2	75	30.0	1	4	45	0.01	30.477 
13:20	37.2	37.2	37.2	75	30.0	1	4	112	0.00	30.477 
13:25	37.0	37.0	37.0	75	29.8	1	4	68	0.00	30.477 
13:30	37.2	37.2	37.2	75	30.0	1	3	68	0.00	30.480 
13:35	37.2	37.2	37.2	74	29.7	1	5	90	0.01	30.480 
13:40	37.2	37.2	37.2	74	29.7	2	4	112	0.00	30.480 
13:45	37.0	37.0	37.0	73	29.2	1	3	112	0.00	30.480 
13:50	37.2	37.2	37.2	74	29.7	0	3	112	0.00	30.480 
13:55	37.3	37.3	37.3	74	29.8	1	5	112	0.00	30.480 
14:00	37.5	37.5	37.5	75	30.3	0	2	112	0.00	30.480 
14:05	37.6	37.6	37.6	74	30.1	0	2	112	0.00	30.480 
14:10	37.6	37.6	37.6	74	30.1	0	2	112	0.00	30.480 
14:15	37.6	37.6	37.6	73	29.7	0	3	112	0.01	30.480 
14:20	37.6	37.6	37.6	72	29.4	1	4	112	0.00	30.480 
14:25	37.8	37.8	37.8	72	29.6	2	4	112	0.00	30.480 
14:30	37.9	37.9	37.9	71	29.4	1	4	112	0.00	30.480 
14:35	37.9	37.9	37.9	72	29.7	2	4	112	0.00	30.480 
14:40	37.9	37.9	37.9	71	29.4	1	4	112	0.00	30.480 
14:45	37.8	37.8	37.8	72	29.6	1	4	112	0.00	30.477 
14:50	37.6	37.6	37.6	73	29.7	2	5	112	0.01	30.477 
14:55	37.6	37.6	37.6	72	29.4	1	5	90	0.00	30.477 
15:00	37.8	37.8	37.8	72	29.6	1	5	90	0.00	30.477 
15:05	37.9	37.9	37.9	72	29.7	2	6	90	0.00	30.477 
15:10	37.9	37.9	37.9	71	29.4	2	5	90	0.00	30.477 
15:15	37.6	37.6	37.6	71	29.1	0	4	90	0.00	30.477 
15:20	37.5	37.5	37.5	71	29.0	1	4	90	0.00	30.477 
15:25	37.5	37.5	37.5	72	29.3	2	4	90	0.00	30.477 
15:30	37.3	37.3	37.3	72	29.1	1	3	90	0.00	30.475 
15:35	37.3	37.3	37.3	72	29.1	1	3	90	0.00	30.475 
15:40	37.2	37.2	37.2	73	29.4	2	4	90	0.00	30.475 
15:45	36.9	36.9	36.9	73	29.1	1	2	90	0.00	30.478 
15:50	36.8	36.8	36.8	74	29.3	2	4	90	0.00	30.478 
15:55	36.6	36.6	36.6	73	28.8	2	4	68	0.00	30.478 
16:00	36.6	36.6	36.6	74	29.1	1	4	68	0.00	30.480 
16:05	36.6	36.6	36.6	73	28.8	1	4	68	0.00	30.480 
16:10	36.6	36.6	36.6	73	28.8	1	4	90	0.00	30.480 
16:15	36.8	36.8	36.8	74	29.3	3	6	90	0.00	30.478 
16:20	36.6	36.6	36.6	74	29.1	2	3	90	0.00	30.478 
16:25	36.6	36.6	36.6	74	29.1	2	5	90	0.00	30.478 
16:30	36.5	36.5	36.5	75	29.3	1	4	112	0.00	30.490 
16:35	36.2	36.2	36.2	76	29.4	1	3	112	0.00	30.490 
16:40	35.9	35.9	35.9	76	29.1	1	3	112	0.00	30.490 
16:45	35.6	35.6	35.6	77	29.1	0	3	112	0.00	30.494 
16:50	35.3	35.3	35.3	77	28.8	0	2	135	0.00	30.494 
16:55	35.0	35.0	35.0	78	28.8	0	2	135	0.00	30.494 
17:00	34.9	34.9	34.9	78	28.7	0	1	135	0.00	30.493 
17:05	34.6	34.6	34.6	79	28.8	1	5	135	0.00	30.493 
17:10	34.6	34.6	34.6	79	28.8	0	3	90	0.00	30.493 
17:15	34.6	34.6	34.6	79	28.8	0	2	90	0.00	30.493 
17:20	34.6	34.6	34.6	80	29.1	0	1	90	0.00	30.493 
17:25	34.6	34.6	34.6	80	29.1	1	2	90	0.00	30.493 
17:30	34.7	34.7	34.7	80	29.2	1	4	90	0.00	30.498 
17:35	34.9	34.9	34.9	80	29.4	0	2	90	0.00	30.498 
17:40	34.9	34.9	34.9	80	29.4	0	2	90	0.00	30.498 
17:45	34.9	34.9	34.9	79	29.1	0	3	112	0.00	30.501 
17:50	34.9	34.9	34.9	79	29.1	0	2	112	0.00	30.501 
17:55	34.9	34.9	34.9	79	29.1	0	1	112	0.00	30.501 
18:00	34.9	34.9	34.9	79	29.1	0	2	112	0.00	30.502 
18:05	34.9	34.9	34.9	79	29.1	1	3	112	0.00	30.502 
18:10	34.9	34.9	34.9	78	28.7	0	4	90	0.00	30.502 
18:15	34.9	34.9	34.9	78	28.7	0	2	90	0.00	30.506 
18:20	34.9	34.9	34.9	79	29.1	0	1	90	0.00	30.506 
18:25	34.9	34.9	34.9	79	29.1	1	3	90	0.00	30.506 
18:30	34.9	34.9	34.9	79	29.1	1	2	68	0.00	30.503 
18:35	35.0	35.0	35.0	79	29.2	1	4	90	0.00	30.503 
18:40	35.0	35.0	35.0	79	29.2	0	2	112	0.00	30.503 
18:45	35.0	35.0	35.0	80	29.5	1	4	112	0.00	30.502 
18:50	34.9	34.9	34.9	80	29.4	1	3	90	0.00	30.502 
18:55	34.9	34.9	34.9	79	29.1	1	3	90	0.00	30.502 
19:00	34.9	34.9	34.9	79	29.1	1	4	112	0.00	30.505 
19:05	34.7	34.7	34.7	79	28.9	1	3	68	0.00	30.505 
19:10	34.7	34.7	34.7	79	28.9	1	2	135	0.00	30.505 
19:15	34.7	34.7	34.7	79	28.9	1	3	90	0.00	30.505 
19:20	34.7	34.7	34.7	80	29.2	1	2	135	0.00	30.505 
19:25	34.9	34.9	34.9	80	29.4	1	5	90	0.00	30.505 
19:30	34.9	34.9	34.9	79	29.1	1	4	135	0.00	30.503 
19:35	34.9	34.9	34.9	80	29.4	1	3	90	0.00	30.503 
19:40	34.9	34.9	34.9	80	29.4	2	4	90	0.00	30.503 
19:45	34.9	34.9	34.9	80	29.4	1	5	90	0.00	30.509 
19:50	34.9	34.9	34.9	80	29.4	1	5	90	0.00	30.509 
19:55	34.9	34.9	34.9	80	29.4	1	4	90	0.00	30.509 
20:00	35.0	35.0	35.0	80	29.5	2	5	68	0.00	30.511 
20:05	34.9	34.9	34.9	80	29.4	1	4	90	0.00	30.511 
20:10	34.9	34.9	34.9	80	29.4	1	4	90	0.00	30.511 
20:15	34.9	34.9	34.9	80	29.4	1	5	90	0.00	30.510 
20:20	34.9	34.9	34.9	80	29.4	1	5	90	0.00	30.510 
20:25	34.9	34.9	34.9	81	29.7	1	3	68	0.00	30.510 
20:30	34.9	34.9	34.9	81	29.7	1	2	90	0.00	30.510 
20:35	34.9	34.9	34.9	81	29.7	1	2	90	0.00	30.510 
20:40	34.9	34.9	34.9	81	29.7	1	4	112	0.00	30.510 
20:45	34.7	34.7	34.7	81	29.5	1	6	90	0.00	30.511 
20:50	34.6	34.6	34.6	81	29.4	1	3	112	0.00	30.511 
20:55	34.4	34.4	34.4	81	29.2	1	5	90	0.00	30.511 
21:00	34.4	34.4	34.4	81	29.2	1	5	90	0.00	30.511 
21:05	34.3	34.3	34.3	81	29.1	1	5	112	0.00	30.511 
21:10	34.1	34.1	34.1	81	28.9	2	7	90	0.00	30.511 
21:15	34.1	34.1	34.1	81	28.9	1	3	112	0.00	30.505 
21:20	34.0	34.0	34.0	82	29.1	1	5	68	0.00	30.505 
21:25	34.0	34.0	34.0	82	29.1	2	5	90	0.00	30.505 
21:30	34.0	34.0	34.0	83	29.4	1	2	135	0.00	30.506 
21:35	34.0	34.0	34.0	83	29.4	1	3	135	0.00	30.506 
21:40	34.0	34.0	34.0	84	29.7	1	5	90	0.00	30.506 
21:45	34.0	34.0	34.0	84	29.7	1	4	90	0.00	30.506 
21:50	33.8	33.8	33.8	84	29.5	1	4	68	0.00	30.506 
21:55	33.7	33.7	33.7	84	29.4	0	2	68	0.00	30.506 
22:00	33.4	33.4	33.4	84	29.1	0	2	68	0.00	30.504 
22:05	33.2	33.2	33.2	84	28.9	0	2	135	0.00	30.504 
22:10	33.1	33.1	33.1	85	29.1	0	2	135	0.00	30.504 
22:15	32.9	32.9	32.9	85	28.9	0	1	135	0.00	30.507 
22:20	32.7	32.7	32.7	85	28.7	0	1	135	0.00	30.507 
22:25	32.4	32.4	32.4	85	28.4	0	0	---	0.00	30.507 
22:30	32.2	32.2	32.2	85	28.2	0	0	---	0.00	30.505 
22:35	31.9	31.9	31.9	86	28.2	0	0	---	0.00	30.505 
22:40	31.8	31.8	31.8	86	28.1	0	0	---	0.00	30.505 
22:45	31.5	31.5	31.5	86	27.8	0	0	---	0.00	30.499 
22:50	31.2	31.2	31.2	87	27.8	0	0	---	0.00	30.499 
22:55	31.0	31.0	31.0	87	27.6	0	0	---	0.00	30.499 
23:00	30.9	30.9	30.9	87	27.5	0	0	---	0.00	30.508 
23:05	30.9	30.9	30.9	88	27.8	0	1	135	0.00	30.508 
23:10	30.7	30.7	30.7	88	27.6	0	0	---	0.00	30.508 
23:15	30.9	30.9	30.9	88	27.8	0	1	135	0.00	30.501 
23:20	30.9	30.9	30.9	89	28.0	0	0	---	0.00	30.501 
23:25	30.9	30.9	30.9	89	28.0	0	0	---	0.00	30.501 
23:30	31.0	31.0	31.0	89	28.1	0	1	135	0.00	30.497 
23:35	31.0	31.0	31.0	90	28.4	0	1	135	0.00	30.497 
23:40	31.2	31.2	31.2	90	28.6	0	2	135	0.00	30.497 
23:45	31.3	31.3	31.3	90	28.7	1	2	135	0.00	30.495 
23:50	31.3	31.3	31.3	90	28.7	0	1	135	0.00	30.495 
23:55	31.3	31.3	31.3	90	28.7	0	3	135	0.00	30.495 

CoCoRaHS
IN-AL-39
A2 Web Hosting
Creative Commons License
GoDaddy
search engine by freefind advanced

loaded 2018-11-15 06:03:46 • last modified 2010-11-18 10:43:29
Privacy PolicyDisclaimer
• wx.awcolley.com is powered by PmWiki v.2002016 •
• all content (unless otherwise noted) © 2018 A W Colley